Time;durP1;ratioP1;P1;durP2;ratioP2;P2;SDS_P1;SDS_P2;PMS_P1;PMS_P2;Temp;Humidity;BMP_temperature;BMP_pressure;BME280_temperature;BME280_humidity;BME280_pressure;Samples;Min_cycle;Max_cycle;Signal;HPM_P1;HPM_P2
2023/05/22 00:02:15;;;;;;;12.60;11.50;;;;;;;13.86;89.13;92586.78;5092366;28;20197;-70
2023/05/22 00:04:41;;;;;;;10.50;9.80;;;;;;;14.02;87.78;92593.25;5091550;28;20188;-70
2023/05/22 00:07:06;;;;;;;11.27;10.50;;;;;;;13.99;87.41;92584.09;5092027;28;20212;-71
2023/05/22 00:09:32;;;;;;;11.43;10.63;;;;;;;14.07;88.16;92593.13;5091639;28;20268;-70
2023/05/22 00:11:57;;;;;;;11.40;10.60;;;;;;;14.29;87.45;92601.78;5091728;28;20173;-70
2023/05/22 00:14:22;;;;;;;13.43;11.33;;;;;;;14.21;88.54;92607.72;5091474;28;20188;-71
2023/05/22 00:16:49;;;;;;;12.33;11.43;;;;;;;14.05;90.39;92587.38;5092247;28;20267;-70
2023/05/22 00:19:15;;;;;;;13.70;12.67;;;;;;;13.97;91.99;92586.25;5091665;28;20176;-70
2023/05/22 00:21:41;;;;;;;13.67;12.40;;;;;;;14.09;92.46;92604.88;5091631;28;20259;-71
2023/05/22 00:24:07;;;;;;;15.60;14.20;;;;;;;13.79;94.66;92602.94;5091565;28;20188;-70
2023/05/22 00:26:33;;;;;;;16.73;15.03;;;;;;;13.83;95.64;92596.06;5091393;28;20225;-71
2023/05/22 00:28:58;;;;;;;17.70;15.50;;;;;;;13.67;96.46;92591.44;5091826;28;20215;-69
2023/05/22 00:31:24;;;;;;;17.80;15.17;;;;;;;13.70;96.06;92562.75;5091220;28;20229;-70
2023/05/22 00:33:49;;;;;;;20.20;15.73;;;;;;;13.96;95.79;92589.94;5091505;28;20185;-69
2023/05/22 00:36:14;;;;;;;19.07;16.67;;;;;;;13.54;97.47;92577.28;5090962;28;20247;-71
2023/05/22 00:38:40;;;;;;;17.63;15.80;;;;;;;13.68;97.68;92585.13;5091539;28;20189;-70
2023/05/22 00:41:06;;;;;;;18.03;15.97;;;;;;;13.75;97.48;92581.00;5091023;28;20213;-70
2023/05/22 00:43:32;;;;;;;17.87;14.50;;;;;;;13.86;97.11;92584.97;5091305;28;20165;-70
2023/05/22 00:45:58;;;;;;;17.63;15.77;;;;;;;13.78;98.24;92585.66;5090911;28;20266;-70
2023/05/22 00:48:24;;;;;;;16.60;15.00;;;;;;;13.91;96.39;92586.69;5090985;28;20185;-70
2023/05/22 00:50:50;;;;;;;20.40;16.57;;;;;;;13.94;96.05;92589.50;5090949;28;20236;-70
2023/05/22 00:53:19;;;;;;;18.63;15.50;;;;;;;13.84;96.77;92584.47;5090621;28;20901;-71
2023/05/22 00:55:45;;;;;;;17.60;15.80;;;;;;;13.75;97.84;92595.97;5091015;28;20235;-70
2023/05/22 00:58:14;;;;;;;18.70;14.93;;;;;;;13.56;97.91;92598.75;5089571;28;20185;-69
2023/05/22 01:00:41;;;;;;;16.07;14.47;;;;;;;13.44;98.97;92595.88;5091132;28;20255;-70
2023/05/22 01:03:10;;;;;;;17.77;14.30;;;;;;;13.38;100.00;92597.06;5090910;28;20181;-69
2023/05/22 01:05:39;;;;;;;14.67;13.40;;;;;;;13.31;100.00;92601.19;5090536;28;20225;-69
2023/05/22 01:08:06;;;;;;;17.37;15.57;;;;;;;13.39;100.00;92595.19;5090760;28;20193;-68
2023/05/22 01:10:34;;;;;;;14.10;12.83;;;;;;;13.16;100.00;92596.22;5090729;28;20235;-69
2023/05/22 01:13:09;;;;;;;14.60;13.40;;;;;;;13.22;100.00;92600.28;5090980;28;20177;-69
2023/05/22 01:15:40;;;;;;;14.70;13.60;;;;;;;13.17;100.00;92603.03;5095989;28;20224;-69
2023/05/22 01:18:18;;;;;;;15.07;13.70;;;;;;;13.25;100.00;92605.72;5090575;28;20177;-69
2023/05/22 01:20:56;;;;;;;14.60;13.20;;;;;;;13.35;100.00;92594.25;5084710;28;20236;-69
2023/05/22 01:23:59;;;;;;;14.67;13.47;;;;;;;13.38;100.00;92593.66;5099154;28;20791;-69
2023/05/22 01:26:28;;;;;;;14.73;13.27;;;;;;;13.46;100.00;92593.75;5089968;28;20239;-69
2023/05/22 01:29:18;;;;;;;14.43;13.33;;;;;;;13.40;100.00;92597.53;5091097;28;20223;-68
2023/05/22 01:31:46;;;;;;;13.73;12.43;;;;;;;13.25;100.00;92574.28;5090575;28;20227;-69
2023/05/22 01:34:13;;;;;;;14.37;12.97;;;;;;;13.40;100.00;92566.06;5089991;28;20192;-69
2023/05/22 01:36:40;;;;;;;13.93;12.70;;;;;;;13.41;100.00;92580.75;5090155;28;20297;-69
2023/05/22 01:39:06;;;;;;;14.20;12.80;;;;;;;13.12;100.00;92559.34;5090308;28;20199;-68
2023/05/22 01:41:35;;;;;;;15.33;12.53;;;;;;;12.96;100.00;92581.69;5089931;28;20276;-70
2023/05/22 01:44:01;;;;;;;12.83;11.83;;;;;;;12.91;100.00;92555.56;5072646;28;20185;-69
2023/05/22 01:46:28;;;;;;;12.83;11.63;;;;;;;12.91;100.00;92572.06;5089926;28;20283;-69
2023/05/22 01:48:53;;;;;;;13.47;12.13;;;;;;;12.73;100.00;92559.09;5089933;28;20191;-69
2023/05/22 01:51:28;;;;;;;13.73;12.43;;;;;;;12.71;100.00;92582.97;5089852;28;20251;-69
2023/05/22 01:54:04;;;;;;;14.07;12.70;;;;;;;12.51;100.00;92579.94;5089874;28;20184;-69
2023/05/22 01:56:44;;;;;;;14.57;13.33;;;;;;;12.47;100.00;92573.72;5089626;28;20231;-67
2023/05/22 01:59:13;;;;;;;14.50;13.00;;;;;;;12.49;100.00;92576.84;5090713;28;20214;-69
2023/05/22 02:01:41;;;;;;;13.50;12.30;;;;;;;12.41;100.00;92574.88;5089581;28;20221;-69
2023/05/22 02:04:08;;;;;;;14.60;12.73;;;;;;;12.41;100.00;92564.41;5090114;28;20924;-70
2023/05/22 02:06:34;;;;;;;13.87;12.53;;;;;;;12.30;100.00;92558.59;5089182;28;20232;-69
2023/05/22 02:09:01;;;;;;;13.17;12.10;;;;;;;12.36;100.00;92573.13;5090023;28;20189;-69
2023/05/22 02:11:29;;;;;;;13.37;12.27;;;;;;;12.08;100.00;92571.53;5089467;28;20304;-69
2023/05/22 02:13:56;;;;;;;14.23;12.83;;;;;;;12.18;100.00;92575.81;5099461;28;20184;-69
2023/05/22 02:16:22;;;;;;;11.90;10.77;;;;;;;12.17;100.00;92575.03;5090701;28;20224;-69
2023/05/22 02:18:47;;;;;;;13.10;12.00;;;;;;;12.14;100.00;92587.94;5089818;28;20211;-70
2023/05/22 02:21:13;;;;;;;13.20;12.03;;;;;;;12.12;100.00;92582.22;5089337;28;20266;-71
2023/05/22 02:23:38;;;;;;;13.47;11.57;;;;;;;12.01;100.00;92573.78;5090223;28;20200;-71
2023/05/22 02:26:05;;;;;;;12.47;11.63;;;;;;;12.03;100.00;92570.88;5089077;28;20251;-71
2023/05/22 02:28:30;;;;;;;12.37;11.07;;;;;;;11.99;100.00;92575.09;5090189;28;20195;-71
2023/05/22 02:30:56;;;;;;;12.23;11.23;;;;;;;11.88;100.00;92571.09;5089070;28;20212;-72
2023/05/22 02:33:21;;;;;;;14.23;12.07;;;;;;;11.91;100.00;92575.75;5075213;28;20218;-72
2023/05/22 02:35:47;;;;;;;13.77;12.40;;;;;;;11.66;100.00;92565.72;5092544;28;20244;-71
2023/05/22 02:38:12;;;;;;;12.87;11.77;;;;;;;11.73;100.00;92576.59;5096221;28;20182;-69
2023/05/22 02:40:37;;;;;;;12.97;11.63;;;;;;;11.69;100.00;92567.78;5095547;28;20288;-69
2023/05/22 02:43:03;;;;;;;11.97;11.00;;;;;;;11.51;100.00;92560.69;5096605;28;20214;-69
2023/05/22 02:45:28;;;;;;;12.00;10.97;;;;;;;11.41;100.00;92555.63;5095439;28;20246;-67
2023/05/22 02:47:54;;;;;;;12.97;11.77;;;;;;;11.62;100.00;92556.84;5096375;28;20188;-68
2023/05/22 02:50:19;;;;;;;11.70;10.80;;;;;;;11.62;100.00;92564.69;5095603;28;20227;-69
2023/05/22 02:52:45;;;;;;;12.33;11.43;;;;;;;11.75;100.00;92566.63;5096376;28;20222;-69
2023/05/22 02:55:10;;;;;;;12.73;11.83;;;;;;;11.59;100.00;92557.41;5095671;28;20231;-69
2023/05/22 02:57:36;;;;;;;13.23;11.73;;;;;;;11.67;100.00;92559.41;5096293;28;20180;-70
2023/05/22 03:00:04;;;;;;;12.73;11.77;;;;;;;11.67;100.00;92546.34;5095658;28;20734;-70
2023/05/22 03:02:31;;;;;;;12.27;11.03;;;;;;;11.99;100.00;92554.16;5096273;28;20181;-69
2023/05/22 03:04:57;;;;;;;13.17;12.17;;;;;;;11.90;100.00;92558.50;5095021;28;20218;-69
2023/05/22 03:07:25;;;;;;;12.63;11.80;;;;;;;11.90;100.00;92564.53;5096143;28;21142;-69
2023/05/22 03:09:51;;;;;;;12.60;11.60;;;;;;;12.02;100.00;92562.22;5095566;28;20243;-69
2023/05/22 03:12:16;;;;;;;11.67;10.97;;;;;;;11.89;100.00;92565.56;5096012;28;20181;-69
2023/05/22 03:14:41;;;;;;;12.57;11.27;;;;;;;12.18;100.00;92565.34;5095064;28;20248;-69
2023/05/22 03:17:07;;;;;;;12.33;11.33;;;;;;;12.53;100.00;92573.34;5095813;28;20200;-69
2023/05/22 03:19:32;;;;;;;13.23;11.60;;;;;;;12.62;100.00;92565.59;5095126;28;20182;-69
2023/05/22 03:21:58;;;;;;;14.40;11.00;;;;;;;12.73;100.00;92567.72;5096171;28;20176;-69
2023/05/22 03:24:23;;;;;;;12.83;11.60;;;;;;;12.77;100.00;92576.56;5095361;28;20181;-70
2023/05/22 03:26:48;;;;;;;12.70;11.63;;;;;;;12.84;100.00;92568.31;5096023;28;20221;-69
2023/05/22 03:29:14;;;;;;;12.40;11.50;;;;;;;12.85;100.00;92575.09;5095892;28;20169;-68
2023/05/22 03:31:39;;;;;;;11.67;10.77;;;;;;;12.72;100.00;92573.25;5095693;28;20216;-69
2023/05/22 03:34:06;;;;;;;11.80;10.90;;;;;;;12.62;100.00;92576.81;5095619;28;20204;-68
2023/05/22 03:36:34;;;;;;;12.27;11.30;;;;;;;12.75;100.00;92559.56;5095235;28;20255;-69
2023/05/22 03:39:00;;;;;;;12.80;11.80;;;;;;;13.12;100.00;92582.16;5095407;28;20177;-69
2023/05/22 03:41:25;;;;;;;12.53;11.63;;;;;;;13.38;98.55;92583.97;5094908;28;20224;-70
2023/05/22 03:43:51;;;;;;;13.00;11.77;;;;;;;13.54;96.78;92571.28;5095687;28;20252;-70
2023/05/22 03:46:17;;;;;;;11.23;10.23;;;;;;;13.74;95.82;92581.31;5093175;28;20229;-70
2023/05/22 03:48:43;;;;;;;11.20;10.47;;;;;;;13.91;95.01;92584.84;5091824;28;20211;-70
2023/05/22 03:51:08;;;;;;;12.33;11.30;;;;;;;13.94;93.21;92584.25;5092849;28;20236;-69
2023/05/22 03:53:33;;;;;;;11.97;10.93;;;;;;;14.15;92.08;92577.41;5089585;28;20241;-68
2023/05/22 03:55:59;;;;;;;11.60;10.80;;;;;;;14.38;90.62;92578.94;5097780;28;20223;-70
2023/05/22 03:58:24;;;;;;;11.63;11.03;;;;;;;14.47;90.38;92582.38;5094364;28;20176;-69
2023/05/22 04:00:57;;;;;;;11.23;10.43;;;;;;;14.48;89.53;92575.28;5091443;28;20236;-69
2023/05/22 04:03:23;;;;;;;11.33;10.20;;;;;;;14.44;88.95;92569.09;5096440;28;20187;-69
2023/05/22 04:05:48;;;;;;;11.53;10.77;;;;;;;14.56;86.34;92582.44;5090381;28;20221;-66
2023/05/22 04:08:13;;;;;;;11.27;10.30;;;;;;;14.78;87.16;92585.00;5090857;28;20219;-66
2023/05/22 04:10:39;;;;;;;11.27;10.57;;;;;;;14.82;87.12;92587.81;5090802;28;20213;-66
2023/05/22 04:13:05;;;;;;;12.27;11.37;;;;;;;15.14;87.21;92588.22;5089548;28;20222;-67
2023/05/22 04:15:32;;;;;;;11.40;10.40;;;;;;;15.14;86.13;92588.22;5091021;28;20238;-68
2023/05/22 04:17:59;;;;;;;11.63;10.73;;;;;;;15.21;84.62;92593.00;5090894;28;20185;-67
2023/05/22 04:20:25;;;;;;;11.50;10.60;;;;;;;15.08;86.59;92593.91;5090715;28;20288;-67
2023/05/22 04:22:50;;;;;;;12.43;11.33;;;;;;;15.13;87.03;92596.41;5089081;28;20262;-67
2023/05/22 04:25:16;;;;;;;13.63;12.47;;;;;;;15.07;86.85;92594.97;5090118;28;20255;-69
2023/05/22 04:27:41;;;;;;;12.87;11.87;;;;;;;15.33;87.10;92587.94;5090865;28;21102;-67
2023/05/22 04:30:09;;;;;;;13.27;12.00;;;;;;;15.63;84.32;92597.56;5087059;28;20216;-68
2023/05/22 04:32:35;;;;;;;13.03;12.13;;;;;;;15.69;83.26;92585.78;5096881;28;20193;-73
2023/05/22 04:35:01;;;;;;;14.03;13.00;;;;;;;15.76;83.53;92607.97;5076619;28;20225;-71
2023/05/22 04:37:27;;;;;;;14.67;13.23;;;;;;;15.65;85.13;92603.31;5085527;28;20193;-71
2023/05/22 04:39:56;;;;;;;15.97;14.53;;;;;;;15.60;86.73;92608.72;5090130;28;20221;-72
2023/05/22 04:42:24;;;;;;;14.37;13.27;;;;;;;15.80;85.71;92610.72;5090794;28;20192;-71
2023/05/22 04:44:51;;;;;;;14.17;13.13;;;;;;;15.27;87.85;92565.50;5090262;28;20232;-70
2023/05/22 04:47:18;;;;;;;14.80;13.50;;;;;;;15.70;86.97;92605.78;5091040;28;20169;-72
2023/05/22 04:49:44;;;;;;;13.53;12.50;;;;;;;15.97;86.52;92602.81;5078396;28;20244;-72
2023/05/22 04:52:10;;;;;;;14.03;12.80;;;;;;;16.11;85.10;92610.59;5094081;28;20210;-72
2023/05/22 04:54:37;;;;;;;14.73;13.53;;;;;;;16.23;84.70;92603.59;5089473;28;20228;-72
2023/05/22 04:57:03;;;;;;;13.23;12.03;;;;;;;16.37;84.74;92603.41;5090066;28;20172;-72
2023/05/22 04:59:30;;;;;;;14.60;13.30;;;;;;;16.49;84.31;92606.97;5089049;28;20198;-72
2023/05/22 05:01:56;;;;;;;14.23;12.90;;;;;;;16.75;83.11;92605.03;5090122;28;20196;-72
2023/05/22 05:04:21;;;;;;;14.33;13.13;;;;;;;17.17;81.86;92611.19;5089629;28;20187;-72
2023/05/22 05:06:46;;;;;;;14.97;13.60;;;;;;;18.21;76.11;92615.50;5089629;28;20224;-71
2023/05/22 05:09:12;;;;;;;12.80;11.53;;;;;;;18.67;73.64;92617.88;5090353;28;20188;-72
2023/05/22 05:11:37;;;;;;;14.27;13.00;;;;;;;18.69;74.54;92620.97;5089900;28;20216;-72
2023/05/22 05:14:03;;;;;;;17.03;13.27;;;;;;;18.79;73.14;92610.75;5089959;28;20176;-72
2023/05/22 05:16:28;;;;;;;13.13;12.10;;;;;;;18.41;74.08;92622.66;5089694;28;20228;-72
2023/05/22 05:18:54;;;;;;;15.10;13.80;;;;;;;18.17;75.51;92619.88;5089979;28;20185;-72
2023/05/22 05:21:20;;;;;;;14.93;13.57;;;;;;;19.07;72.42;92616.16;5089477;28;20224;-71
2023/05/22 05:23:46;;;;;;;15.77;13.33;;;;;;;19.93;66.40;92640.44;5090056;28;20183;-72
2023/05/22 05:26:12;;;;;;;13.70;11.13;;;;;;;19.69;66.79;92629.84;5089005;28;20220;-71
2023/05/22 05:28:37;;;;;;;13.30;11.53;;;;;;;19.48;66.59;92629.22;5089908;28;20208;-73
2023/05/22 05:31:03;;;;;;;13.17;12.00;;;;;;;19.39;66.75;92593.38;5089418;28;20232;-72
2023/05/22 05:33:28;;;;;;;11.60;10.70;;;;;;;20.29;63.11;92636.94;5089752;28;20193;-72
2023/05/22 05:35:54;;;;;;;12.43;11.30;;;;;;;19.67;65.05;92621.50;5088918;28;20234;-72
2023/05/22 05:38:19;;;;;;;14.37;11.57;;;;;;;20.32;62.36;92634.38;5089804;28;20194;-72
2023/05/22 05:40:45;;;;;;;10.80;9.93;;;;;;;21.93;56.45;92637.66;5088996;28;20215;-72
2023/05/22 05:43:13;;;;;;;11.63;10.53;;;;;;;25.80;44.82;92638.88;5101807;28;20191;-72
2023/05/22 05:45:39;;;;;;;12.55;10.70;;;;;;;25.84;43.00;92644.28;5089830;28;20211;-72
2023/05/22 05:48:05;;;;;;;11.77;10.75;;;;;;;24.89;44.00;92649.50;5089287;28;20408;-72
2023/05/22 05:50:31;;;;;;;11.38;10.20;;;;;;;22.28;48.49;92640.31;5089294;28;20224;-72
2023/05/22 05:52:56;;;;;;;10.82;9.38;;;;;;;22.04;51.55;92640.56;5089469;28;20221;-71
2023/05/22 05:55:22;;;;;;;10.45;9.57;;;;;;;21.65;52.94;92628.28;5088895;28;20249;-72
2023/05/22 05:57:47;;;;;;;10.10;9.40;;;;;;;21.64;55.04;92638.13;5089621;28;20170;-72
2023/05/22 06:00:13;;;;;;;9.75;9.15;;;;;;;26.17;43.14;92650.25;5086902;28;20220;-71
2023/05/22 06:02:38;;;;;;;10.40;9.50;;;;;;;30.08;32.46;92661.41;5089558;28;20193;-72
2023/05/22 06:05:04;;;;;;;9.95;9.15;;;;;;;31.59;28.24;92665.13;5088726;28;20230;-72
2023/05/22 06:07:30;;;;;;;9.43;8.75;;;;;;;32.98;26.47;92655.84;5089480;28;20238;-72
2023/05/22 06:09:57;;;;;;;8.60;8.00;;;;;;;31.88;27.88;92660.88;5087825;28;20283;-72
2023/05/22 06:12:23;;;;;;;8.93;8.30;;;;;;;29.68;30.68;92650.16;5089475;28;20903;-72
2023/05/22 06:14:48;;;;;;;9.35;8.55;;;;;;;30.38;29.92;92669.63;5088961;28;20219;-72
2023/05/22 06:17:15;;;;;;;9.63;8.52;;;;;;;31.46;27.04;92667.59;5089062;28;20177;-72
2023/05/22 06:19:41;;;;;;;9.98;8.52;;;;;;;31.00;28.37;92672.81;5088298;28;20181;-73
2023/05/22 06:22:06;;;;;;;8.05;7.55;;;;;;;30.92;28.12;92663.28;5089127;28;20177;-72
2023/05/22 06:24:32;;;;;;;8.90;8.30;;;;;;;27.55;31.97;92651.56;5088544;28;20188;-72
2023/05/22 06:26:58;;;;;;;9.38;8.65;;;;;;;27.50;32.12;92660.75;5089186;28;20275;-73
2023/05/22 06:29:23;;;;;;;10.25;9.38;;;;;;;28.32;31.37;92654.19;5088472;28;20188;-72
2023/05/22 06:31:49;;;;;;;9.63;8.93;;;;;;;28.59;30.04;92659.91;5088835;28;20192;-67
2023/05/22 06:34:14;;;;;;;8.98;8.38;;;;;;;27.48;31.36;92652.31;5088462;28;20193;-68
2023/05/22 06:36:41;;;;;;;9.13;8.52;;;;;;;25.23;35.64;92636.88;5087072;28;20244;-67
2023/05/22 06:39:07;;;;;;;8.73;8.13;;;;;;;24.64;37.14;92634.31;5088752;28;20181;-68
2023/05/22 06:41:34;;;;;;;8.95;8.30;;;;;;;24.07;39.09;92640.03;5087861;28;20215;-68
2023/05/22 06:44:00;;;;;;;9.30;8.55;;;;;;;23.23;37.90;92640.25;5091286;28;20180;-68
2023/05/22 06:46:26;;;;;;;9.65;8.75;;;;;;;22.66;40.48;92642.22;5087940;28;20233;-68
2023/05/22 06:48:53;;;;;;;10.55;9.60;;;;;;;22.36;42.69;92641.22;5090923;28;20196;-67
2023/05/22 06:51:19;;;;;;;10.05;9.30;;;;;;;21.68;42.67;92635.56;5088262;28;20219;-68
2023/05/22 06:53:45;;;;;;;10.68;9.98;;;;;;;21.48;43.98;92633.97;5088719;28;20203;-67
2023/05/22 06:56:10;;;;;;;10.38;9.50;;;;;;;21.62;43.50;92634.28;5087566;28;20222;-68
2023/05/22 06:58:35;;;;;;;10.30;9.43;;;;;;;21.77;41.41;92631.63;5088054;28;20179;-67
2023/05/22 07:01:01;;;;;;;9.35;8.48;;;;;;;21.42;42.41;92640.63;5088101;28;20225;-67
2023/05/22 07:03:26;;;;;;;9.98;8.90;;;;;;;21.39;42.45;92641.31;5087811;28;20184;-66
2023/05/22 07:05:56;;;;;;;10.10;9.35;;;;;;;21.04;45.55;92640.47;5087279;28;20258;-67
2023/05/22 07:08:22;;;;;;;9.90;9.13;;;;;;;21.06;44.48;92638.25;5087864;28;20206;-67
2023/05/22 07:10:47;;;;;;;10.38;9.60;;;;;;;20.62;45.67;92630.25;5087513;28;20225;-67
2023/05/22 07:13:13;;;;;;;9.10;8.48;;;;;;;21.05;45.23;92634.03;5091971;28;20785;-68
2023/05/22 07:15:38;;;;;;;10.32;9.60;;;;;;;21.47;45.76;92643.03;5094640;28;20251;-69
2023/05/22 07:18:04;;;;;;;13.10;11.23;;;;;;;21.52;45.04;92630.28;5069673;28;20715;-67
2023/05/22 07:20:30;;;;;;;11.05;10.13;;;;;;;21.16;44.92;92637.72;5096657;28;20235;-66
2023/05/22 07:22:57;;;;;;;10.00;9.20;;;;;;;21.38;46.07;92639.78;5073881;28;20216;-67
2023/05/22 07:25:22;;;;;;;11.32;10.23;;;;;;;21.83;42.93;92640.09;5091573;28;20295;-67
2023/05/22 07:27:47;;;;;;;10.52;9.48;;;;;;;22.00;44.33;92640.50;5093014;28;20193;-66
2023/05/22 07:30:13;;;;;;;9.93;9.32;;;;;;;22.13;41.94;92641.91;5093572;28;20233;-66
2023/05/22 07:32:39;;;;;;;10.07;9.27;;;;;;;21.98;44.52;92636.63;5092071;28;20191;-68
2023/05/22 07:35:06;;;;;;;9.85;9.05;;;;;;;20.78;47.20;92630.28;5094486;28;20243;-69
2023/05/22 07:37:31;;;;;;;10.85;10.00;;;;;;;21.23;47.10;92638.66;5085324;28;20201;-67
2023/05/22 07:39:57;;;;;;;9.88;9.10;;;;;;;21.01;47.31;92630.53;5090749;28;20236;-68
2023/05/22 07:42:22;;;;;;;10.40;9.57;;;;;;;21.23;45.22;92632.59;5091229;28;20203;-68
2023/05/22 07:44:48;;;;;;;9.82;9.13;;;;;;;20.82;46.99;92633.03;5073561;28;20239;-68
2023/05/22 07:47:13;;;;;;;10.25;9.23;;;;;;;20.55;47.95;92635.41;5092070;28;20213;-68
2023/05/22 07:49:39;;;;;;;9.77;9.00;;;;;;;20.07;50.50;92630.22;5093164;28;20227;-66
2023/05/22 07:52:04;;;;;;;16.10;10.25;;;;;;;20.45;50.75;92633.22;5091376;28;20234;-67
2023/05/22 07:54:30;;;;;;;10.43;9.57;;;;;;;20.25;49.48;92628.88;5091538;28;20231;-68
2023/05/22 07:56:56;;;;;;;11.23;10.43;;;;;;;20.82;50.40;92633.03;5090737;28;20198;-68
2023/05/22 07:59:22;;;;;;;10.07;9.27;;;;;;;21.13;48.23;92635.75;5084805;28;20196;-68
2023/05/22 08:01:48;;;;;;;11.15;10.07;;;;;;;20.56;50.55;92631.63;5091361;28;20356;-68
2023/05/22 08:04:14;;;;;;;11.80;10.70;;;;;;;20.28;52.50;92636.16;5090792;28;20195;-67
2023/05/22 08:06:40;;;;;;;9.90;8.98;;;;;;;20.36;51.74;92632.59;5090370;28;20234;-68
2023/05/22 08:09:05;;;;;;;10.52;9.80;;;;;;;20.47;53.15;92633.66;5090912;28;20187;-68
2023/05/22 08:11:31;;;;;;;11.38;10.55;;;;;;;19.82;53.96;92634.03;5089815;28;20223;-67
2023/05/22 08:13:56;;;;;;;11.88;10.98;;;;;;;20.21;53.99;92627.22;5090230;28;20206;-67
2023/05/22 08:16:22;;;;;;;18.13;11.53;;;;;;;20.37;52.66;92634.13;5105321;28;20232;-68
2023/05/22 08:18:48;;;;;;;11.47;10.03;;;;;;;20.20;52.03;92631.00;5090482;28;20195;-68
2023/05/22 08:21:13;;;;;;;11.53;10.53;;;;;;;19.80;51.87;92628.28;5089727;28;20240;-68
2023/05/22 08:23:39;;;;;;;11.93;10.80;;;;;;;19.84;54.25;92621.25;5090566;28;20196;-67
2023/05/22 08:26:07;;;;;;;11.23;10.17;;;;;;;20.30;53.35;92633.94;5090149;28;20233;-68
2023/05/22 08:28:33;;;;;;;10.70;9.67;;;;;;;20.34;52.40;92629.50;5090218;28;20226;-68
2023/05/22 08:30:58;;;;;;;10.70;9.67;;;;;;;20.53;53.44;92629.66;5090396;28;20224;-69
2023/05/22 08:33:23;;;;;;;10.55;9.30;;;;;;;20.60;50.83;92637.81;5089989;28;20199;-68
2023/05/22 08:35:49;;;;;;;9.97;8.70;;;;;;;20.52;55.92;92636.06;5090150;28;20234;-69
2023/05/22 08:38:15;;;;;;;10.15;9.13;;;;;;;20.46;54.37;92624.16;5087582;28;20251;-68
2023/05/22 08:40:41;;;;;;;10.27;9.27;;;;;;;20.25;53.71;92628.88;5105841;28;20287;-68
2023/05/22 08:43:06;;;;;;;9.65;8.93;;;;;;;20.36;55.55;92632.59;5090392;28;20194;-68
2023/05/22 08:45:33;;;;;;;13.15;9.38;;;;;;;20.98;50.00;92628.56;5089745;28;20902;-68
2023/05/22 08:48:03;;;;;;;9.60;9.00;;;;;;;20.32;53.29;92626.44;5082865;28;20188;-68
2023/05/22 08:50:30;;;;;;;10.40;9.63;;;;;;;20.63;49.88;92631.03;5080444;28;20228;-69
2023/05/22 08:52:58;;;;;;;10.73;9.70;;;;;;;20.53;49.68;92621.69;5089638;28;20845;-68
2023/05/22 08:55:24;;;;;;;10.27;9.50;;;;;;;20.63;49.36;92626.53;5089379;28;20263;-70
2023/05/22 08:57:50;;;;;;;9.90;9.30;;;;;;;21.38;50.28;92629.16;5088722;28;20171;-70
2023/05/22 09:00:16;;;;;;;9.65;8.85;;;;;;;21.70;48.46;92630.66;5087395;28;20261;-69
2023/05/22 09:02:42;;;;;;;13.05;8.38;;;;;;;22.03;44.08;92639.81;5087803;28;20204;-72
2023/05/22 09:05:08;;;;;;;9.10;8.57;;;;;;;22.18;40.15;92625.66;5089465;28;20229;-73
2023/05/22 09:07:36;;;;;;;9.27;8.55;;;;;;;22.11;42.34;92622.09;5071934;28;20185;-73
2023/05/22 09:10:04;;;;;;;9.93;9.23;;;;;;;22.01;40.93;92626.06;5088164;28;20218;-73
2023/05/22 09:12:31;;;;;;;8.98;8.38;;;;;;;21.88;38.46;92629.97;5089775;28;20199;-72
2023/05/22 09:15:02;;;;;;;8.73;8.23;;;;;;;21.66;38.10;92609.34;5088976;28;20263;-72
2023/05/22 09:17:27;;;;;;;8.32;7.88;;;;;;;22.11;40.52;92608.81;5089206;28;20196;-73
2023/05/22 09:19:53;;;;;;;9.38;8.68;;;;;;;22.80;40.46;92610.56;5089492;28;20230;-73
2023/05/22 09:22:18;;;;;;;9.40;8.77;;;;;;;22.90;38.73;92621.38;5089746;28;20194;-73
2023/05/22 09:24:46;;;;;;;9.60;9.07;;;;;;;23.05;39.29;92620.50;5089238;28;20262;-72
2023/05/22 09:27:11;;;;;;;9.13;8.50;;;;;;;22.82;37.97;92630.38;5089728;28;20218;-73
2023/05/22 09:29:56;;;;;;;10.43;8.80;;;;;;;23.03;36.94;92628.09;5088643;28;20200;-73
2023/05/22 09:32:22;;;;;;;9.00;8.32;;;;;;;23.09;37.99;92623.22;5089659;28;20202;-71
2023/05/22 09:34:48;;;;;;;9.23;8.43;;;;;;;22.89;38.77;92622.53;5088887;28;21193;-73
2023/05/22 09:37:14;;;;;;;9.10;8.30;;;;;;;22.79;37.59;92620.41;5081751;28;20222;-68
2023/05/22 09:39:45;;;;;;;8.82;8.23;;;;;;;22.68;37.66;92624.03;5088775;28;20199;-68
2023/05/22 09:42:13;;;;;;;9.10;8.35;;;;;;;22.66;38.46;92619.06;5089062;28;20278;-68
2023/05/22 09:44:41;;;;;;;10.40;8.82;;;;;;;22.17;38.81;92612.72;5087893;28;20216;-68
2023/05/22 09:47:07;;;;;;;9.95;9.15;;;;;;;22.13;41.30;92622.53;5086671;28;20240;-67
2023/05/22 09:49:41;;;;;;;9.35;8.57;;;;;;;22.22;41.24;92628.41;5089546;28;20186;-68
2023/05/22 09:52:07;;;;;;;10.18;9.48;;;;;;;22.50;39.20;92634.31;5088618;28;20192;-68
2023/05/22 09:54:34;;;;;;;9.25;8.55;;;;;;;22.13;40.33;92623.28;5088421;28;20199;-68
2023/05/22 09:57:02;;;;;;;9.52;8.95;;;;;;;21.84;40.29;92631.78;5088945;28;20209;-69
2023/05/22 09:59:30;;;;;;;8.73;8.15;;;;;;;21.51;40.03;92620.00;5080587;28;20201;-68
2023/05/22 10:01:56;;;;;;;11.63;8.68;;;;;;;21.61;40.67;92632.72;5089016;28;20181;-68
2023/05/22 10:04:22;;;;;;;9.82;9.05;;;;;;;21.66;40.76;92627.94;5088292;28;20253;-71
2023/05/22 10:06:53;;;;;;;8.88;8.35;;;;;;;21.83;40.98;92622.28;5088623;28;20205;-68
2023/05/22 10:09:22;;;;;;;8.38;7.85;;;;;;;22.34;39.97;92630.94;5104687;28;20193;-68
2023/05/22 10:11:53;;;;;;;9.20;8.50;;;;;;;22.36;39.95;92619.94;5087943;28;20199;-68
2023/05/22 10:14:19;;;;;;;9.20;8.40;;;;;;;22.60;39.69;92630.34;5070967;28;20183;-68
2023/05/22 10:16:45;;;;;;;8.35;7.75;;;;;;;22.59;38.02;92612.81;5087940;28;20229;-69
2023/05/22 10:19:11;;;;;;;8.90;8.15;;;;;;;22.75;39.01;92621.47;5088349;28;20175;-68
2023/05/22 10:21:40;;;;;;;9.52;8.82;;;;;;;22.88;38.51;92626.28;5088063;28;20301;-69
2023/05/22 10:24:06;;;;;;;9.07;8.38;;;;;;;22.81;39.94;92625.41;5088695;28;20198;-69
2023/05/22 10:26:31;;;;;;;10.20;9.30;;;;;;;22.82;38.95;92621.63;5090944;28;20214;-68
2023/05/22 10:29:09;;;;;;;11.25;8.10;;;;;;;22.33;40.55;92625.97;5088260;28;20212;-69
2023/05/22 10:31:47;;;;;;;8.57;7.78;;;;;;;21.81;41.11;92621.06;5085977;28;20230;-69
2023/05/22 10:34:21;;;;;;;9.05;8.45;;;;;;;21.68;41.36;92611.66;5089303;28;20187;-68
2023/05/22 10:37:02;;;;;;;8.98;8.15;;;;;;;20.99;45.75;92624.78;5087826;28;20319;-68
2023/05/22 10:39:43;;;;;;;10.73;9.82;;;;;;;20.65;49.28;92618.97;5084294;28;20189;-71
2023/05/22 10:42:12;;;;;;;9.98;8.95;;;;;;;19.69;56.46;92626.47;5066250;28;20201;-68
2023/05/22 10:44:38;;;;;;;10.77;9.73;;;;;;;19.06;59.40;92633.16;5087975;28;20254;-68
2023/05/22 10:47:10;;;;;;;11.00;9.43;;;;;;;18.58;63.71;92633.84;5088664;28;20218;-69
2023/05/22 10:49:36;;;;;;;11.00;10.30;;;;;;;17.77;74.58;92632.00;5087728;28;20250;-67
2023/05/22 10:52:02;;;;;;;11.93;11.03;;;;;;;17.69;79.09;92623.06;5085061;28;20216;-70
2023/05/22 10:54:44;;;;;;;10.57;9.97;;;;;;;17.83;75.64;92633.34;5104012;28;20180;-69
2023/05/22 10:57:13;;;;;;;14.47;13.30;;;;;;;18.42;74.45;92619.69;5089164;28;20249;-69
2023/05/22 10:59:38;;;;;;;10.87;10.17;;;;;;;19.06;68.00;92627.88;5091643;28;20190;-69
2023/05/22 11:02:05;;;;;;;11.20;10.40;;;;;;;19.56;63.73;92631.00;5082815;28;20653;-68
2023/05/22 11:04:31;;;;;;;10.57;9.87;;;;;;;19.63;65.81;92625.13;5091660;28;20193;-69
2023/05/22 11:07:05;;;;;;;11.20;10.17;;;;;;;18.63;65.70;92615.09;5091749;28;20222;-68
2023/05/22 11:09:32;;;;;;;9.60;8.87;;;;;;;19.29;64.95;92621.06;5091642;28;20179;-68
2023/05/22 11:12:30;;;;;;;12.00;9.87;;;;;;;19.44;65.97;92615.09;5108200;28;20187;-69
2023/05/22 11:14:57;;;;;;;10.80;10.07;;;;;;;19.48;68.22;92617.84;5051020;28;20241;-70
2023/05/22 11:17:30;;;;;;;10.40;9.37;;;;;;;18.43;67.53;92609.84;5091467;28;20250;-69
2023/05/22 11:20:05;;;;;;;10.53;9.67;;;;;;;18.20;70.36;92614.72;5091142;28;20245;-68